Time;durP1;ratioP1;P1;durP2;ratioP2;P2;SDS_P1;SDS_P2;PMS_P1;PMS_P2;Temp;Humidity;BMP_temperature;BMP_pressure;BME280_temperature;BME280_humidity;BME280_pressure;Samples;Min_cycle;Max_cycle;Signal;HPM_P1;HPM_P2
2021/04/24 00:02:12;;;;;;;8.15;7.35;;;;;;;;;;3570150;40;20380;-69
2021/04/24 00:04:42;;;;;;;9.05;8.15;;;;;;;;;;3570171;40;20422;-69
2021/04/24 00:07:08;;;;;;;8.48;7.55;;;;;;;;;;3577419;40;20727;-69
2021/04/24 00:09:34;;;;;;;8.50;7.70;;;;;;;;;;3570181;40;20424;-70
2021/04/24 00:12:00;;;;;;;7.65;6.95;;;;;;;;;;3573659;40;20393;-69
2021/04/24 00:14:27;;;;;;;8.32;7.53;;;;;;;;;;3567103;40;20767;-69
2021/04/24 00:16:53;;;;;;;8.98;8.07;;;;;;;;;;3569232;40;20779;-69
2021/04/24 00:19:19;;;;;;;9.88;8.95;;;;;;;;;;3577138;40;20387;-69
2021/04/24 00:21:46;;;;;;;8.47;7.57;;;;;;;;;;3568195;40;20849;-69
2021/04/24 00:24:13;;;;;;;7.78;6.97;;;;;;;;;;3566764;40;20385;-69
2021/04/24 00:26:39;;;;;;;7.55;6.85;;;;;;;;;;3574527;40;20782;-69
2021/04/24 00:29:05;;;;;;;9.30;8.40;;;;;;;;;;3575932;40;20424;-69
2021/04/24 00:31:32;;;;;;;9.82;8.93;;;;;;;;;;3575952;40;20404;-70
2021/04/24 00:33:58;;;;;;;8.93;8.13;;;;;;;;;;3568844;40;20407;-73
2021/04/24 00:36:25;;;;;;;8.90;8.00;;;;;;;;;;3571158;40;20411;-69
2021/04/24 00:38:52;;;;;;;9.07;8.18;;;;;;;;;;3574268;40;20793;-69
2021/04/24 00:41:18;;;;;;;9.27;8.38;;;;;;;;;;3572086;40;20401;-69
2021/04/24 00:43:44;;;;;;;8.88;7.85;;;;;;;;;;3574824;40;20384;-69
2021/04/24 00:46:11;;;;;;;10.30;8.67;;;;;;;;;;3577080;40;20560;-69
2021/04/24 00:48:37;;;;;;;11.27;10.10;;;;;;;;;;3567346;40;20808;-70
2021/04/24 00:51:04;;;;;;;9.52;8.63;;;;;;;;;;3573854;40;20778;-70
2021/04/24 00:53:30;;;;;;;11.25;10.18;;;;;;;;;;3573105;40;20423;-69
2021/04/24 00:55:57;;;;;;;11.50;10.30;;;;;;;;;;3569739;40;20485;-69
2021/04/24 00:58:24;;;;;;;11.00;9.30;;;;;;;;;;3570833;40;20653;-70
2021/04/24 01:00:50;;;;;;;9.95;9.05;;;;;;;;;;3574210;40;20462;-67
2021/04/24 01:03:17;;;;;;;10.07;8.85;;;;;;;;;;3608134;23;20426;-65
2021/04/24 01:05:44;;;;;;;11.38;10.18;;;;;;;;;;3586562;40;20371;-66
2021/04/24 01:08:10;;;;;;;12.00;9.68;;;;;;;;;;3585447;40;20379;-66
2021/04/24 01:10:37;;;;;;;10.80;9.70;;;;;;;;;;3579845;40;20407;-65
2021/04/24 01:13:05;;;;;;;12.40;11.20;;;;;;;;;;3586468;40;20381;-65
2021/04/24 01:15:31;;;;;;;13.88;12.38;;;;;;;;;;3580195;40;20394;-65
2021/04/24 01:17:57;;;;;;;13.18;11.80;;;;;;;;;;3581234;40;20392;-65
2021/04/24 01:20:24;;;;;;;14.13;12.48;;;;;;;;;;3579660;40;20386;-65
2021/04/24 01:22:51;;;;;;;16.08;13.88;;;;;;;;;;3584775;40;20772;-65
2021/04/24 01:25:18;;;;;;;12.95;11.50;;;;;;;;;;3585794;40;20401;-65
2021/04/24 01:27:46;;;;;;;11.57;10.38;;;;;;;;;;3575650;40;20390;-65
2021/04/24 01:30:13;;;;;;;11.77;10.57;;;;;;;;;;3581132;40;20679;-65
2021/04/24 01:32:39;;;;;;;12.98;11.70;;;;;;;;;;3585630;40;20382;-65
2021/04/24 01:35:06;;;;;;;15.48;13.25;;;;;;;;;;3573964;40;20395;-65
2021/04/24 01:37:33;;;;;;;13.02;11.73;;;;;;;;;;3583826;40;20394;-65
2021/04/24 01:40:00;;;;;;;14.30;12.00;;;;;;;;;;3586668;40;20625;-65
2021/04/24 01:42:26;;;;;;;13.48;12.07;;;;;;;;;;3586540;40;20378;-65
2021/04/24 01:44:53;;;;;;;13.13;11.88;;;;;;;;;;3586251;40;20398;-65
2021/04/24 01:47:19;;;;;;;14.70;12.52;;;;;;;;;;3581956;40;20767;-65
2021/04/24 01:49:46;;;;;;;14.90;13.35;;;;;;;;;;3574639;40;20477;-66
2021/04/24 01:52:12;;;;;;;13.35;11.95;;;;;;;;;;3586483;40;20384;-65
2021/04/24 01:54:38;;;;;;;14.75;13.25;;;;;;;;;;3585734;40;20492;-65
2021/04/24 01:57:06;;;;;;;14.68;12.70;;;;;;;;;;3586369;40;20382;-64
2021/04/24 01:59:35;;;;;;;14.68;12.85;;;;;;;;;;3586622;40;20386;-64
2021/04/24 02:02:01;;;;;;;14.93;13.32;;;;;;;;;;3583802;40;20408;-65
2021/04/24 02:04:28;;;;;;;14.98;13.45;;;;;;;;;;3575573;40;20415;-69
2021/04/24 02:06:55;;;;;;;15.23;13.65;;;;;;;;;;3576581;40;20439;-70
2021/04/24 02:09:22;;;;;;;14.38;12.98;;;;;;;;;;3576782;40;20749;-70
2021/04/24 02:12:01;;;;;;;15.70;14.10;;;;;;;;;;3575868;40;20399;-70
2021/04/24 02:14:28;;;;;;;16.23;14.50;;;;;;;;;;3572556;40;20390;-71
2021/04/24 02:16:54;;;;;;;15.02;13.48;;;;;;;;;;3577735;40;20426;-70
2021/04/24 02:19:21;;;;;;;15.47;14.00;;;;;;;;;;3575473;40;20398;-70
2021/04/24 02:21:47;;;;;;;14.85;13.20;;;;;;;;;;3576531;40;20382;-70
2021/04/24 02:24:13;;;;;;;14.07;12.65;;;;;;;;;;3576390;40;20392;-70
2021/04/24 02:26:39;;;;;;;14.93;13.45;;;;;;;;;;3576522;40;20415;-70
2021/04/24 02:29:12;;;;;;;14.75;13.45;;;;;;;;;;3576461;40;20404;-70
2021/04/24 02:31:39;;;;;;;15.37;13.83;;;;;;;;;;3576290;40;20645;-73
2021/04/24 02:34:05;;;;;;;16.00;14.13;;;;;;;;;;3576222;40;20422;-71
2021/04/24 02:36:31;;;;;;;15.60;14.00;;;;;;;;;;3576154;40;20400;-71
2021/04/24 02:38:57;;;;;;;15.15;13.55;;;;;;;;;;3575031;40;20400;-71
2021/04/24 02:41:24;;;;;;;15.02;13.55;;;;;;;;;;3576183;40;20398;-70
2021/04/24 02:43:50;;;;;;;15.45;13.85;;;;;;;;;;3576278;40;20388;-72
2021/04/24 02:46:16;;;;;;;15.65;14.05;;;;;;;;;;3576746;40;20378;-71
2021/04/24 02:48:43;;;;;;;15.77;14.07;;;;;;;;;;3577860;40;20392;-71
2021/04/24 02:51:10;;;;;;;15.73;13.75;;;;;;;;;;3577589;40;20383;-72
2021/04/24 02:53:36;;;;;;;15.13;13.63;;;;;;;;;;3577794;40;20376;-72
2021/04/24 02:56:02;;;;;;;14.30;12.90;;;;;;;;;;3577603;40;20411;-71
2021/04/24 02:58:28;;;;;;;14.13;12.73;;;;;;;;;;3576619;40;20756;-72
2021/04/24 03:00:54;;;;;;;16.67;13.70;;;;;;;;;;3577767;40;20744;-71
2021/04/24 03:03:21;;;;;;;14.32;12.68;;;;;;;;;;3577586;40;20411;-71
2021/04/24 03:05:48;;;;;;;14.20;12.70;;;;;;;;;;3577770;40;20461;-71
2021/04/24 03:08:14;;;;;;;13.77;12.18;;;;;;;;;;3579093;40;20422;-70
2021/04/24 03:10:41;;;;;;;13.80;12.45;;;;;;;;;;3580138;40;20403;-71
2021/04/24 03:13:08;;;;;;;13.65;12.27;;;;;;;;;;3577636;40;20381;-72
2021/04/24 03:15:34;;;;;;;13.75;12.23;;;;;;;;;;3570633;40;20793;-72
2021/04/24 03:18:01;;;;;;;13.80;12.30;;;;;;;;;;3576568;40;20485;-71
2021/04/24 03:20:27;;;;;;;13.40;12.00;;;;;;;;;;3576546;40;20386;-72
2021/04/24 03:22:54;;;;;;;12.65;11.30;;;;;;;;;;3577371;40;20388;-71
2021/04/24 03:25:21;;;;;;;13.65;12.15;;;;;;;;;;3576536;40;20443;-71
2021/04/24 03:27:47;;;;;;;13.80;12.32;;;;;;;;;;3577582;40;20380;-71
2021/04/24 03:30:14;;;;;;;12.90;11.53;;;;;;;;;;3576873;40;20625;-73
2021/04/24 03:32:40;;;;;;;12.65;11.45;;;;;;;;;;3575981;40;20388;-72
2021/04/24 03:35:08;;;;;;;13.00;11.70;;;;;;;;;;3577149;40;20470;-72
2021/04/24 03:37:34;;;;;;;13.95;12.65;;;;;;;;;;3577356;40;20402;-71
2021/04/24 03:40:02;;;;;;;14.48;12.57;;;;;;;;;;3577243;40;20395;-71
2021/04/24 03:42:30;;;;;;;13.95;12.48;;;;;;;;;;3577294;40;20384;-70
2021/04/24 03:44:56;;;;;;;13.03;11.60;;;;;;;;;;3577312;40;20573;-72
2021/04/24 03:47:23;;;;;;;14.38;11.85;;;;;;;;;;3577030;40;20462;-71
2021/04/24 03:49:49;;;;;;;13.35;11.95;;;;;;;;;;3577452;40;20465;-70
2021/04/24 03:52:15;;;;;;;12.88;11.55;;;;;;;;;;3576249;40;20391;-71
2021/04/24 03:54:41;;;;;;;12.38;11.18;;;;;;;;;;3577284;40;20402;-71
2021/04/24 03:57:08;;;;;;;13.38;11.98;;;;;;;;;;3576107;40;20420;-72
2021/04/24 03:59:35;;;;;;;12.52;11.23;;;;;;;;;;3576738;40;20446;-71
2021/04/24 04:02:01;;;;;;;12.73;11.30;;;;;;;;;;3576825;40;20408;-71
2021/04/24 04:04:27;;;;;;;13.40;12.00;;;;;;;;;;3576128;40;20404;-72
2021/04/24 04:06:53;;;;;;;14.55;12.00;;;;;;;;;;3576393;40;20411;-71
2021/04/24 04:09:20;;;;;;;12.50;11.30;;;;;;;;;;3577351;40;20392;-72
2021/04/24 04:11:46;;;;;;;12.98;11.73;;;;;;;;;;3577154;40;20378;-72
2021/04/24 04:14:13;;;;;;;12.37;11.10;;;;;;;;;;3583073;40;20523;-72
2021/04/24 04:16:39;;;;;;;13.40;11.30;;;;;;;;;;3577322;40;20381;-71
2021/04/24 04:19:05;;;;;;;12.48;11.30;;;;;;;;;;3576807;40;20415;-72
2021/04/24 04:21:32;;;;;;;15.27;11.25;;;;;;;;;;3572053;40;20463;-72
2021/04/24 04:23:58;;;;;;;12.27;11.07;;;;;;;;;;3576045;40;20394;-71
2021/04/24 04:26:24;;;;;;;12.48;11.18;;;;;;;;;;3576804;40;20399;-72
2021/04/24 04:28:50;;;;;;;12.05;10.82;;;;;;;;;;3573332;40;20383;-76
2021/04/24 04:31:17;;;;;;;12.82;11.52;;;;;;;;;;3571087;40;20392;-72
2021/04/24 04:33:44;;;;;;;12.95;11.05;;;;;;;;;;3575859;40;20403;-72
2021/04/24 04:36:10;;;;;;;11.98;10.43;;;;;;;;;;3576910;40;20646;-71
2021/04/24 04:38:36;;;;;;;16.67;12.25;;;;;;;;;;3576051;40;20400;-71
2021/04/24 04:41:04;;;;;;;13.40;11.80;;;;;;;;;;3576848;40;20723;-71
2021/04/24 04:43:30;;;;;;;14.70;11.27;;;;;;;;;;3575965;40;20408;-71
2021/04/24 04:45:56;;;;;;;12.23;10.88;;;;;;;;;;3576812;40;20506;-72
2021/04/24 04:48:23;;;;;;;12.40;11.20;;;;;;;;;;3580493;40;20375;-71
2021/04/24 04:50:50;;;;;;;11.65;10.40;;;;;;;;;;3573285;40;20863;-71
2021/04/24 04:53:16;;;;;;;11.93;10.73;;;;;;;;;;3579480;40;20413;-72
2021/04/24 04:55:42;;;;;;;12.50;11.20;;;;;;;;;;3580260;40;20436;-73
2021/04/24 04:58:08;;;;;;;12.40;11.20;;;;;;;;;;3576830;40;20461;-73
2021/04/24 05:00:35;;;;;;;12.70;10.50;;;;;;;;;;3576776;40;20380;-71
2021/04/24 05:03:01;;;;;;;12.52;11.18;;;;;;;;;;3576782;40;20424;-72
2021/04/24 05:05:28;;;;;;;12.43;11.07;;;;;;;;;;3576641;40;20649;-71
2021/04/24 05:07:54;;;;;;;11.93;10.73;;;;;;;;;;3576183;40;20388;-72
2021/04/24 05:10:21;;;;;;;11.47;10.37;;;;;;;;;;3568726;40;20375;-72
2021/04/24 05:12:47;;;;;;;13.38;10.95;;;;;;;;;;3569699;40;20707;-71
2021/04/24 05:15:14;;;;;;;11.48;10.27;;;;;;;;;;3575339;40;20398;-70
2021/04/24 05:17:40;;;;;;;11.77;10.57;;;;;;;;;;3576156;40;20402;-72
2021/04/24 05:20:07;;;;;;;12.35;10.75;;;;;;;;;;3576235;40;20378;-71
2021/04/24 05:22:34;;;;;;;12.23;11.02;;;;;;;;;;3574959;40;20391;-71
2021/04/24 05:25:01;;;;;;;11.57;10.48;;;;;;;;;;3576404;40;20380;-71
2021/04/24 05:27:27;;;;;;;12.00;10.65;;;;;;;;;;3576221;40;20395;-71
2021/04/24 05:29:54;;;;;;;11.35;10.18;;;;;;;;;;3576319;40;20384;-71
2021/04/24 05:32:20;;;;;;;11.95;10.75;;;;;;;;;;3575182;40;20399;-71
2021/04/24 05:34:46;;;;;;;11.57;10.45;;;;;;;;;;3576220;40;20682;-71
2021/04/24 05:37:13;;;;;;;11.57;10.48;;;;;;;;;;3581216;40;20413;-70
2021/04/24 05:39:40;;;;;;;10.80;9.80;;;;;;;;;;3576232;40;20380;-71
2021/04/24 05:42:06;;;;;;;12.82;11.02;;;;;;;;;;3576084;40;20693;-72
2021/04/24 05:44:32;;;;;;;12.45;11.15;;;;;;;;;;3576135;40;20376;-71
2021/04/24 05:46:58;;;;;;;11.70;10.38;;;;;;;;;;3576100;40;20399;-71
2021/04/24 05:49:25;;;;;;;10.93;9.73;;;;;;;;;;3575924;40;20496;-71
2021/04/24 05:51:51;;;;;;;10.38;9.38;;;;;;;;;;3576180;40;20757;-72
2021/04/24 05:54:17;;;;;;;10.85;9.75;;;;;;;;;;3574897;40;20400;-70
2021/04/24 05:56:44;;;;;;;11.65;10.57;;;;;;;;;;3576113;40;20786;-71
2021/04/24 05:59:10;;;;;;;13.27;11.18;;;;;;;;;;3575931;40;20380;-71
2021/04/24 06:01:36;;;;;;;12.80;11.50;;;;;;;;;;3575992;40;20407;-71
2021/04/24 06:04:03;;;;;;;15.40;12.18;;;;;;;;;;3540157;40;1400171;-71
2021/04/24 06:06:29;;;;;;;13.00;11.80;;;;;;;;;;3576658;40;20432;-71
2021/04/24 06:08:55;;;;;;;12.93;11.60;;;;;;;;;;3575388;40;20399;-72
2021/04/24 06:11:21;;;;;;;12.32;10.68;;;;;;;;;;3571180;40;20392;-70
2021/04/24 06:13:49;;;;;;;11.98;10.68;;;;;;;;;;3573497;40;20406;-71
2021/04/24 06:16:16;;;;;;;13.77;11.07;;;;;;;;;;3574972;40;20652;-72
2021/04/24 06:18:42;;;;;;;11.50;10.30;;;;;;;;;;3575575;40;20448;-71
2021/04/24 06:21:08;;;;;;;10.73;9.20;;;;;;;;;;3583038;40;20376;-72
2021/04/24 06:23:34;;;;;;;9.40;8.55;;;;;;;;;;3577731;40;20757;-71
2021/04/24 06:26:01;;;;;;;10.00;9.07;;;;;;;;;;3576537;40;20396;-71
2021/04/24 06:28:27;;;;;;;10.07;9.18;;;;;;;;;;3576600;40;20803;-71
2021/04/24 06:30:54;;;;;;;10.27;9.27;;;;;;;;;;3577548;40;20412;-77
2021/04/24 06:33:20;;;;;;;11.88;10.15;;;13.30;99.10;;;;;;3577740;40;20384;-71
2021/04/24 06:35:46;;;;;;;12.57;11.18;;;;;;;;;;3577547;40;20441;-72
2021/04/24 06:38:12;;;;;;;11.15;10.15;;;;;;;;;;3577588;40;20376;-73
2021/04/24 06:40:38;;;;;;;11.65;10.45;;;;;;;;;;3577341;40;20408;-73
2021/04/24 06:43:05;;;;;;;11.55;10.45;;;;;;;;;;3582924;40;20435;-71
2021/04/24 06:45:31;;;;;;;10.25;9.18;;;;;;;;;;3577624;40;20384;-70
2021/04/24 06:47:58;;;;;;;11.07;9.38;;;;;;;;;;3577564;40;20640;-71
2021/04/24 06:50:24;;;;;;;10.77;9.67;;;;;;;;;;3577104;40;20497;-72
2021/04/24 06:52:51;;;;;;;11.95;10.75;;;;;;;;;;3576845;40;20386;-71
2021/04/24 06:55:18;;;;;;;13.55;12.20;;;;;;;;;;3568450;40;20392;-71
2021/04/24 06:57:45;;;;;;;13.38;12.07;;;;;;;;;;3577628;40;20399;-70
2021/04/24 07:00:11;;;;;;;12.60;11.30;;;;;;;;;;3576628;40;20392;-71
2021/04/24 07:02:38;;;;;;;10.35;9.35;;;;;;;;;;3577216;40;20448;-71
2021/04/24 07:05:08;;;;;;;17.15;11.38;;;;;;;;;;3576502;40;20400;-73
2021/04/24 07:07:34;;;;;;;13.55;11.57;;;;;;;;;;3577438;40;20388;-71
2021/04/24 07:10:00;;;;;;;11.63;10.60;;;;;;;;;;3577566;40;20640;-71
2021/04/24 07:12:26;;;;;;;11.43;10.30;;;;;;;;;;3570499;40;20388;-71
2021/04/24 07:14:53;;;;;;;11.50;10.40;;;;;;;;;;3577494;40;20757;-71
2021/04/24 07:17:19;;;;;;;9.30;8.30;;;;;;;;;;3576544;40;20396;-72
2021/04/24 07:19:45;;;;;;;9.13;8.15;;;;;;;;;;3577357;40;20368;-71
2021/04/24 07:22:12;;;;;;;8.75;7.82;;;;;;;;;;3577335;40;20361;-71
2021/04/24 07:24:44;;;;;;;9.48;8.40;;;;;;;;;;3581272;40;20386;-72
2021/04/24 07:27:10;;;;;;;9.37;8.30;;;;;;;;;;3577543;40;20470;-71
2021/04/24 07:29:36;;;;;;;9.43;8.43;;;;;;;;;;3577412;40;20707;-71
2021/04/24 07:32:03;;;;;;;10.02;8.75;;;;;;;;;;3577067;40;20458;-71
2021/04/24 07:34:29;;;;;;;12.65;10.40;;;;;;;;;;3577227;40;20761;-71
2021/04/24 07:36:55;;;;;;;8.93;8.02;;;;;;;;;;3582814;40;20499;-72
2021/04/24 07:39:22;;;;;;;12.13;9.53;;;;;;;;;;3578141;40;20379;-71
2021/04/24 07:41:48;;;;;;;12.43;11.13;;;;;;;;;;3576399;40;20419;-71
2021/04/24 07:44:15;;;;;;;19.52;11.75;;;;;;;;;;3577385;40;20375;-72
2021/04/24 07:46:41;;;;;;;19.50;11.80;;;;;;;;;;3576742;40;20406;-72
2021/04/24 07:49:07;;;;;;;14.40;11.45;;;;;;;;;;3576614;40;20420;-71
2021/04/24 07:51:33;;;;;;;15.05;11.15;;;;;;;;;;3576321;40;20658;-70
2021/04/24 07:54:00;;;;;;;12.40;9.70;;;;;;;;;;3576790;40;20656;-71
2021/04/24 07:56:27;;;;;;;13.15;10.57;;;;;;;;;;3576856;40;20485;-71
2021/04/24 07:58:53;;;;;;;13.43;11.60;;;;;;;;;;3577225;40;20427;-72
2021/04/24 08:01:41;;;;;;;13.63;10.73;;;;;;;;;;3577341;40;20392;-71
2021/04/24 08:04:08;;;;;;;14.63;11.98;;;;;;;;;;3577093;40;20403;-70
2021/04/24 08:06:34;;;;;;;14.23;10.75;;;17.90;90.70;;;;;;3576708;40;20388;-71
2021/04/24 08:09:00;;;;;;;15.52;11.02;;;18.00;91.00;;;;;;3576653;40;20747;-71
2021/04/24 08:11:27;;;;;;;15.95;11.68;;;;;;;;;;3575838;40;20383;-71
2021/04/24 08:13:55;;;;;;;14.65;11.48;;;;;;;;;;3576742;40;20391;-71
2021/04/24 08:16:21;;;;;;;16.83;12.03;;;18.10;91.00;;;;;;3577142;40;20403;-72
2021/04/24 08:18:47;;;;;;;16.08;11.32;;;;;;;;;;3576574;40;20443;-71
2021/04/24 08:21:14;;;;;;;18.35;13.10;;;;;;;;;;3576655;40;20403;-70
2021/04/24 08:23:40;;;;;;;14.77;10.98;;;;;;;;;;3576830;40;20485;-71
2021/04/24 08:26:06;;;;;;;16.27;11.45;;;;;;;;;;3577120;40;20554;-71
2021/04/24 08:28:34;;;;;;;14.02;10.63;;;;;;;;;;3577084;40;20380;-71
2021/04/24 08:31:00;;;;;;;14.05;10.65;;;;;;;;;;3573710;40;20368;-71
2021/04/24 08:33:26;;;;;;;13.95;10.85;;;;;;;;;;3573325;40;20399;-71
2021/04/24 08:35:52;;;;;;;13.33;11.40;;;;;;;;;;3576951;40;20575;-71
2021/04/24 08:38:19;;;;;;;14.85;11.60;;;;;;;;;;3573552;40;20751;-71
2021/04/24 08:40:46;;;;;;;13.10;10.60;;;;;;;;;;3576099;40;20384;-72
2021/04/24 08:43:13;;;;;;;13.40;10.23;;;;;;;;;;3576008;40;20383;-74
2021/04/24 08:45:42;;;;;;;11.73;9.95;;;;;;;;;;3573581;40;20399;-71
2021/04/24 08:48:08;;;;;;;11.38;10.07;;;;;;;;;;3576085;40;20399;-71
2021/04/24 08:50:35;;;;;;;10.90;8.35;;;;;;;;;;3574841;40;20392;-71
2021/04/24 08:53:02;;;;;;;14.65;10.63;;;;;;;;;;3576953;40;20699;-71
2021/04/24 08:55:29;;;;;;;11.35;9.57;;;;;;;;;;3578784;40;20763;-71
2021/04/24 08:57:56;;;;;;;14.00;11.88;;;;;;;;;;3574198;40;20395;-71
2021/04/24 09:00:23;;;;;;;11.38;10.18;;;;;;;;;;3575168;40;20505;-75
2021/04/24 09:02:50;;;;;;;14.63;11.27;;;;;;;;;;3576576;40;20509;-70
2021/04/24 09:05:19;;;;;;;13.63;11.73;;;18.30;90.20;;;;;;3576950;40;20502;-71
2021/04/24 09:07:45;;;;;;;11.32;9.48;;;;;;;;;;3575731;40;20684;-70
2021/04/24 09:10:15;;;;;;;11.67;9.97;;;;;;;;;;3575553;40;20404;-72
2021/04/24 09:12:43;;;;;;;11.07;9.53;;;;;;;;;;3571343;40;20388;-71
2021/04/24 09:15:13;;;;;;;12.13;10.05;;;;;;;;;;3575492;40;20393;-70
2021/04/24 09:17:56;;;;;;;10.65;8.52;;;19.60;83.40;;;;;;3576696;40;20415;-72
2021/04/24 09:20:24;;;;;;;10.93;8.23;;;19.70;82.50;;;;;;3582619;40;20468;-71
2021/04/24 09:23:00;;;;;;;10.40;9.00;;;19.90;82.50;;;;;;3577279;40;20402;-71
2021/04/24 09:25:31;;;;;;;11.23;8.25;;;;;;;;;;3580911;40;20648;-71
2021/04/24 09:27:57;;;;;;;10.10;8.75;;;20.00;80.60;;;;;;3576660;40;20768;-71
2021/04/24 09:30:26;;;;;;;9.70;8.68;;;20.30;81.10;;;;;;3576345;40;20427;-71
2021/04/24 09:32:53;;;;;;;10.50;8.90;;;;;;;;;;3576504;40;20380;-71
2021/04/24 09:35:21;;;;;;;10.05;9.05;;;;;;;;;;3576476;40;20933;-71
2021/04/24 09:37:57;;;;;;;9.00;7.87;;;;;;;;;;3576447;40;20406;-72
2021/04/24 09:40:23;;;;;;;9.50;7.87;;;20.80;77.30;;;;;;3576206;40;20432;-70
2021/04/24 09:42:56;;;;;;;9.93;8.07;;;20.90;77.30;;;;;;3576472;40;20395;-69
2021/04/24 09:45:30;;;;;;;10.43;8.70;;;20.90;77.20;;;;;;3575191;40;20410;-69
2021/04/24 09:47:58;;;;;;;12.90;10.50;;;21.00;75.20;;;;;;3574035;40;20396;-69
2021/04/24 09:50:31;;;;;;;14.05;9.13;;;20.90;75.00;;;;;;3576269;40;20388;-69
2021/04/24 09:53:13;;;;;;;11.85;9.73;;;20.80;76.80;;;;;;3567389;40;20384;-68
2021/04/24 09:55:39;;;;;;;12.65;11.02;;;20.90;76.80;;;;;;3571646;40;20390;-68
2021/04/24 09:58:22;;;;;;;11.88;10.68;;;21.00;76.60;;;;;;3575988;40;20404;-68
2021/04/24 10:00:48;;;;;;;12.25;10.93;;;21.20;74.50;;;;;;3574628;40;20403;-68
2021/04/24 10:03:33;;;;;;;11.75;10.55;;;21.10;75.80;;;;;;3575919;40;20419;-69
2021/04/24 10:06:21;;;;;;;11.18;10.05;;;21.00;76.10;;;;;;3575325;40;20805;-69
2021/04/24 10:08:47;;;;;;;13.77;11.80;;;21.00;76.60;;;;;;3574020;40;20376;-69
2021/04/24 10:11:26;;;;;;;12.70;11.38;;;21.00;74.70;;;;;;3574846;40;20769;-68
2021/04/24 10:13:52;;;;;;;16.05;14.38;;;21.10;77.30;;;;;;3574870;40;20380;-68
2021/04/24 10:16:36;;;;;;;16.92;13.88;;;20.90;71.40;;;;;;3574751;40;20407;-70
2021/04/24 10:19:12;;;;;;;11.80;10.60;;;20.60;73.30;;;;;;3574491;40;20375;-69
2021/04/24 10:21:39;;;;;;;12.70;11.40;;;20.70;76.10;;;;;;3567718;40;20640;-69
2021/04/24 10:24:06;;;;;;;12.90;11.52;;;21.00;73.40;;;;;;3576110;40;20387;-69
2021/04/24 10:26:32;;;;;;;13.18;11.88;;;21.20;75.60;;;;;;3571585;40;20410;-69
2021/04/24 10:29:00;;;;;;;13.32;12.00;;;21.10;73.80;;;;;;3574764;40;20384;-69
2021/04/24 10:31:26;;;;;;;12.40;11.02;;;21.00;74.30;;;;;;3576153;40;20428;-69
2021/04/24 10:33:54;;;;;;;14.73;13.23;;;;;;;;;;3576198;40;20826;-69
2021/04/24 10:36:21;;;;;;;15.23;13.02;;;;;;;;;;3576334;40;20432;-69
2021/04/24 10:38:48;;;;;;;12.95;11.70;;;;;;;;;;3576213;40;20761;-68
2021/04/24 10:41:16;;;;;;;15.17;12.37;;;;;;;;;;3575967;40;20387;-69
2021/04/24 10:43:42;;;;;;;12.70;11.40;;;;;;;;;;3575112;40;20472;-69
2021/04/24 10:46:29;;;;;;;14.18;12.80;;;21.80;70.90;;;;;;3574133;40;20372;-68
2021/04/24 10:49:24;;;;;;;14.88;13.40;;;21.80;71.50;;;;;;3575124;40;20383;-69
2021/04/24 10:51:52;;;;;;;16.15;14.10;;;21.70;72.40;;;;;;3575193;40;20747;-69
2021/04/24 10:54:19;;;;;;;13.38;11.85;;;21.70;71.60;;;;;;3575669;40;20707;-69
2021/04/24 10:56:45;;;;;;;15.00;13.43;;;;;;;;;;3575500;40;20664;-68
2021/04/24 10:59:29;;;;;;;14.77;12.70;;;21.70;72.60;;;;;;3570753;40;20781;-69
2021/04/24 11:02:17;;;;;;;12.73;10.60;;;22.00;70.00;;;;;;3572222;40;20399;-68
2021/04/24 11:04:50;;;;;;;12.27;10.98;;;22.30;72.40;;;;;;3569969;40;20537;-68
2021/04/24 11:07:24;;;;;;;14.53;11.80;;;22.90;69.00;;;;;;3576181;40;20403;-68
2021/04/24 11:10:27;;;;;;;13.23;11.95;;;22.60;67.30;;;;;;3567613;40;20450;-68
2021/04/24 11:12:57;;;;;;;14.38;12.85;;;22.30;67.30;;;;;;3576383;40;20383;-68
2021/04/24 11:15:23;;;;;;;13.00;11.63;;;22.10;69.50;;;;;;3567666;40;20403;-68
2021/04/24 11:17:51;;;;;;;10.95;9.85;;;22.10;73.80;;;;;;3576694;40;20403;-69
2021/04/24 11:20:46;;;;;;;12.15;10.95;;;22.40;70.80;;;;;;3567486;40;20395;-68
2021/04/24 11:23:44;;;;;;;14.73;12.75;;;22.50;70.40;;;;;;3573082;40;20395;-70
2021/04/24 11:26:12;;;;;;;12.55;11.15;;;22.40;68.50;;;;;;3575948;40;20473;-69
2021/04/24 11:29:08;;;;;;;13.38;11.73;;;22.20;69.90;;;;;;3576678;40;20447;-69
2021/04/24 11:31:52;;;;;;;11.93;10.52;;;22.10;69.80;;;;;;3572716;40;20714;-70
2021/04/24 11:34:49;;;;;;;9.90;9.00;;;22.30;68.20;;;;;;3576797;40;20827;-68
2021/04/24 11:37:32;;;;;;;12.02;10.77;;;22.20;67.90;;;;;;3573142;40;20412;-68
2021/04/24 11:40:31;;;;;;;10.35;9.25;;;22.20;67.40;;;;;;3574575;40;20754;-69
2021/04/24 11:43:08;;;;;;;10.88;9.13;;;;;;;;;;3576926;40;20383;-69
2021/04/24 11:45:53;;;;;;;12.98;10.18;;;;;;;;;;3567051;40;20660;-68
2021/04/24 11:48:42;;;;;;;9.93;8.38;;;;;;;;;;3574146;40;20442;-69
2021/04/24 11:51:08;;;;;;;11.55;9.85;;;;;;;;;;3571367;40;20414;-68
2021/04/24 11:53:44;;;;;;;10.85;8.98;;;;;;;;;;3576493;40;20473;-69
2021/04/24 11:56:13;;;;;;;10.30;9.30;;;;;;;;;;3577094;40;20754;-69
2021/04/24 11:58:42;;;;;;;10.80;9.70;;;23.00;94.30;;;;;;3574996;40;20402;-68
2021/04/24 12:01:17;;;;;;;10.65;9.18;;;;;;;;;;3575092;40;20477;-68
2021/04/24 12:03:43;;;;;;;9.73;8.82;;;;;;;;;;3565536;40;20425;-69
2021/04/24 12:06:09;;;;;;;8.18;7.38;;;;;;;;;;3574173;40;20388;-68
2021/04/24 12:08:36;;;;;;;9.23;8.35;;;;;;;;;;3576416;40;20478;-69
2021/04/24 12:11:02;;;;;;;9.88;8.48;;;;;;;;;;3567383;40;20399;-69
2021/04/24 12:13:29;;;;;;;10.73;9.15;;;;;;;;;;3560812;40;20704;-69
2021/04/24 12:15:55;;;;;;;10.23;8.98;;;;;;;;;;3572931;40;20535;-69
2021/04/24 12:18:29;;;;;;;12.03;10.73;;;;;;;;;;3575944;40;20400;-69
2021/04/24 12:20:56;;;;;;;8.70;7.90;;;;;;;;;;3576913;40;20467;-69
2021/04/24 12:23:22;;;;;;;10.45;9.43;;;;;;;;;;3573842;40;20391;-68
2021/04/24 12:25:48;;;;;;;8.57;7.78;;;;;;;;;;3575133;40;20461;-69
2021/04/24 12:28:15;;;;;;;7.85;7.05;;;;;;;;;;3566867;40;20511;-68
2021/04/24 12:30:43;;;;;;;8.25;6.45;;;;;;;;;;3576215;40;20404;-69
2021/04/24 12:33:10;;;;;;;10.77;9.10;;;;;;;;;;3577044;40;20399;-68
2021/04/24 12:35:37;;;;;;;8.30;7.47;;;;;;;;;;3580356;40;20757;-69
2021/04/24 12:38:04;;;;;;;7.63;6.82;;;;;;;;;;3574245;40;20407;-69
2021/04/24 12:40:31;;;;;;;8.40;7.25;;;;;;;;;;3567648;40;20477;-69
2021/04/24 12:43:04;;;;;;;9.27;7.50;;;;;;;;;;3572592;40;20400;-69
2021/04/24 12:45:31;;;;;;;7.70;6.80;;;;;;;;;;3573269;40;20380;-69
2021/04/24 12:47:58;;;;;;;8.30;7.40;;;;;;;;;;3573665;40;20413;-69
2021/04/24 12:50:27;;;;;;;8.57;6.53;;;;;;;;;;3572156;40;20381;-68
2021/04/24 12:52:55;;;;;;;7.20;6.50;;;;;;;;;;3574360;40;20765;-69
2021/04/24 12:55:21;;;;;;;8.18;6.50;;;;;;;;;;3567060;40;20390;-69
2021/04/24 12:57:51;;;;;;;9.85;8.05;;;;;;;;;;3574120;40;20396;-69
2021/04/24 13:00:19;;;;;;;7.93;7.15;;;;;;;;;;3576520;40;20764;-69
2021/04/24 13:02:45;;;;;;;8.13;6.13;;;;;;;;;;3572519;40;20419;-69
2021/04/24 13:05:13;;;;;;;9.68;7.63;;;;;;;;;;3567667;40;20773;-69
2021/04/24 13:07:40;;;;;;;8.00;7.20;;;;;;;;;;3576679;40;20394;-69
2021/04/24 13:10:16;;;;;;;6.70;6.03;;;;;;;;;;3576636;40;20384;-70
2021/04/24 13:12:55;;;;;;;8.18;7.13;;;;;;;;;;3573658;40;20372;-70
2021/04/24 13:15:22;;;;;;;7.43;6.03;;;;;;;;;;3577646;40;20416;-68
2021/04/24 13:17:49;;;;;;;8.18;7.38;;;;;;;;;;3573008;40;20385;-69
2021/04/24 13:20:29;;;;;;;6.75;5.45;;;;;;;;;;3574339;40;20375;-70
2021/04/24 13:22:55;;;;;;;5.40;4.90;;;;;;;;;;3570393;40;20502;-69
2021/04/24 13:25:32;;;;;;;4.82;4.28;;;;;;;;;;3570335;40;20852;-69
2021/04/24 13:27:58;;;;;;;5.47;4.85;;;;;;;;;;3571162;40;20431;-70
2021/04/24 13:30:25;;;;;;;6.80;5.43;;;;;;;;;;3576393;40;20380;-69
2021/04/24 13:32:55;;;;;;;5.57;4.50;;;;;;;;;;3572669;40;20652;-69
2021/04/24 13:35:21;;;;;;;4.70;4.22;;;;;;;;;;3577857;40;20392;-69
2021/04/24 13:37:57;;;;;;;9.23;5.97;;;;;;;;;;3574479;40;20420;-70
2021/04/24 13:40:25;;;;;;;7.15;5.60;;;;;;;;;;3573544;40;20655;-70
2021/04/24 13:42:51;;;;;;;8.15;6.15;;;;;;;;;;3573441;40;20378;-70
2021/04/24 13:45:18;;;;;;;7.60;5.72;;;;;;;;;;3577959;40;20375;-70
2021/04/24 13:47:45;;;;;;;8.80;5.80;;;;;;;;;;3577245;40;20399;-69
2021/04/24 13:50:12;;;;;;;12.10;7.25;;;;;;;;;;3565680;40;20400;-71
2021/04/24 13:52:39;;;;;;;5.97;5.35;;;;;;;;;;3575107;40;20391;-70
2021/04/24 13:55:06;;;;;;;6.80;5.60;;;;;;;;;;3576658;40;20859;-71
2021/04/24 13:57:33;;;;;;;6.57;5.90;;;;;;;;;;3575269;40;20539;-71
2021/04/24 13:59:59;;;;;;;5.13;4.07;;;;;;;;;;3578117;40;20744;-70
2021/04/24 14:02:25;;;;;;;5.43;4.93;;;;;;;;;;3567233;40;20407;-71
2021/04/24 14:04:51;;;;;;;6.18;5.53;;;;;;;;;;3571181;40;20794;-71
2021/04/24 14:07:18;;;;;;;5.30;4.80;;;;;;;;;;3570595;40;20455;-71
2021/04/24 14:09:44;;;;;;;11.27;6.60;;;;;;;;;;3567428;40;20407;-71
2021/04/24 14:12:11;;;;;;;5.10;4.33;;;;;;;;;;3576713;40;20384;-71
2021/04/24 14:14:38;;;;;;;5.78;4.70;;;;;;;;;;3576312;40;20392;-71